This is the latest recevied weather packets stored in our database for station/object IZ5MJO-13. If no packets are shown the sender has not sent any weather packets the latest 10 day(s).
| Time | Temp. | Humidity | Pressure | Rain* | Wind** | Luminosity | Snow |
|---|---|---|---|---|---|---|---|
| 1787890799 | 25.56° C | 59% | 1007.3 hPa | - | - | - | - |
| 1787889898 | 25.56° C | 61% | 1007.4 hPa | - | - | - | - |
| 1787888997 | 25.56° C | 63% | 1007.2 hPa | - | - | - | - |
| 1787888097 | 25° C | 64% | 1007.5 hPa | - | - | - | - |
| 1787887197 | 25.56° C | 64% | 1007.7 hPa | - | - | - | - |
| 1787886296 | 25.56° C | 64% | 1007.6 hPa | - | - | - | - |
| 1787885533 | 26.11° C | 63% | 1008 hPa | - | - | - | - |
| 1787885396 | 25.56° C | 61% | 1007.4 hPa | - | - | - | - |
| 1787884496 | 25.56° C | 61% | 1008.6 hPa | - | - | - | - |
| 1787883596 | 25.56° C | 61% | 1009 hPa | - | - | - | - |
| 1787882696 | 26.11° C | 63% | 1008.4 hPa | - | - | - | - |
| 1787881933 | 26.11° C | 63% | 1007.9 hPa | - | - | - | - |
| 1787881795 | 26.67° C | 60% | 1008.3 hPa | - | - | - | - |
| 1787880895 | 26.67° C | 61% | 1008.2 hPa | - | - | - | - |
| 1787880844 | 26.11° C | 62% | 1008.1 hPa | - | - | - | - |
| 1787879995 | 26.11° C | 63% | 1008 hPa | - | - | - | - |
| 1787879217 | 26.11° C | 61% | 1008 hPa | - | - | - | - |
| 1787879095 | 26.11° C | 63% | 1007.9 hPa | - | - | - | - |
| 1787878952 | 26.67° C | 58% | 1008.1 hPa | - | - | - | - |
| 1787878908 | 26.11° C | 64% | 1007.3 hPa | - | - | - | - |
| 1787878194 | 26.11° C | 62% | 1008.1 hPa | - | - | - | - |
| 1787877294 | 26.11° C | 61% | 1008 hPa | - | - | - | - |
| 1787876394 | 26.67° C | 58% | 1008.1 hPa | - | - | - | - |
| 1787875494 | 26.11° C | 64% | 1007.3 hPa | - | - | - | - |
| 1787874600 | 26.11° C | 63% | 1007.5 hPa | - | - | - | - |
* Rain since midnight (hover to see other rain measurements)
** Current wind speed in m/s (hover to see current wind gust speed)